createdAt,value
2022-11-14T00:00:02.229Z,4.3
2022-11-14T00:15:02.673Z,4.3
2022-11-14T00:30:03.117Z,4.2
2022-11-14T00:45:02.541Z,4.4
2022-11-14T01:00:02.990Z,4.5
2022-11-14T01:15:02.483Z,4.5
2022-11-14T01:30:02.858Z,4.5
2022-11-14T01:45:02.515Z,4.5
2022-11-14T02:00:02.760Z,4.6
2022-11-14T02:15:03.188Z,4.6
2022-11-14T02:30:02.610Z,4.5
2022-11-14T02:45:03.042Z,4.5
2022-11-14T03:00:02.500Z,4.5
2022-11-14T03:15:02.931Z,4.4
2022-11-14T03:30:02.518Z,4.4
2022-11-14T03:45:02.798Z,4.4
2022-11-14T04:00:03.239Z,4.3
2022-11-14T04:15:02.703Z,4.0
2022-11-14T04:30:03.106Z,3.8
2022-11-14T04:45:02.660Z,3.5
2022-11-14T05:00:02.972Z,3.7
2022-11-14T05:15:02.541Z,3.8
2022-11-14T05:45:03.488Z,3.5
2022-11-14T06:00:02.736Z,3.4
2022-11-14T06:15:03.162Z,3.3
2022-11-14T06:30:02.606Z,3.2
2022-11-14T06:45:03.053Z,3.0
2022-11-14T07:00:02.565Z,2.9
2022-11-14T07:15:02.896Z,2.8
2022-11-14T07:30:02.551Z,2.7
2022-11-14T07:45:02.776Z,2.9
2022-11-14T08:00:03.230Z,3.1
2022-11-14T08:15:02.655Z,3.4
2022-11-14T08:30:03.086Z,3.8
2022-11-14T08:45:02.585Z,4.2
2022-11-14T09:00:02.956Z,5.5
2022-11-14T09:15:02.572Z,7.9
2022-11-14T09:30:02.832Z,9.3
2022-11-14T09:45:03.303Z,8.9
2022-11-14T10:00:02.705Z,7.5
2022-11-14T10:15:03.156Z,7.0
2022-11-14T10:30:02.612Z,7.1
2022-11-14T10:45:03.030Z,7.6
2022-11-14T11:00:02.591Z,8.2
2022-11-14T11:15:02.901Z,8.9
2022-11-14T11:30:02.330Z,9.2
2022-11-14T11:45:02.765Z,9.2
2022-11-14T12:00:03.201Z,9.9
2022-11-14T12:15:02.641Z,11.5
2022-11-14T12:30:03.104Z,11.9
2022-11-14T12:45:02.661Z,12.3
2022-11-14T13:00:02.971Z,11.2
2022-11-14T13:15:02.626Z,10.4
2022-11-14T13:30:02.852Z,10.0
2022-11-14T13:45:02.301Z,9.8
2022-11-14T14:00:02.729Z,9.6
2022-11-14T14:15:03.162Z,9.5
2022-11-14T14:30:02.648Z,9.3
2022-11-14T14:45:03.064Z,9.1
2022-11-14T15:00:02.657Z,9.0
2022-11-14T15:15:02.934Z,8.7
2022-11-14T15:30:02.373Z,8.3
2022-11-14T15:45:02.794Z,7.8
2022-11-14T16:00:03.312Z,7.3
2022-11-14T16:15:02.699Z,7.0
2022-11-14T16:30:03.133Z,7.1
2022-11-14T16:45:02.763Z,7.0
2022-11-14T17:00:03.045Z,6.6
2022-11-14T17:15:02.422Z,6.2
2022-11-14T17:30:02.864Z,6.3
2022-11-14T17:45:02.326Z,6.6
2022-11-14T18:00:02.697Z,7.1
2022-11-14T18:15:03.167Z,7.6
2022-11-14T18:30:13.789Z,8.0
2022-11-14T19:00:02.684Z,8.3
2022-11-14T19:15:02.942Z,8.3
2022-11-14T19:30:02.353Z,8.2
2022-11-14T19:45:02.778Z,8.1
2022-11-14T20:00:03.230Z,8.1
2022-11-14T20:15:02.723Z,8.1
2022-11-14T20:30:03.110Z,8.1
2022-11-14T20:45:02.726Z,8.1
2022-11-14T21:00:03.005Z,8.1
2022-11-14T21:15:02.433Z,8.0
2022-11-14T21:30:02.873Z,8.0
2022-11-14T21:45:02.290Z,7.9
2022-11-14T22:00:02.764Z,7.9
2022-11-14T22:15:03.187Z,7.9
2022-11-14T22:30:02.757Z,7.7
2022-11-14T22:45:03.070Z,7.5
2022-11-14T23:00:02.504Z,7.8
2022-11-14T23:15:02.935Z,7.6
2022-11-14T23:30:02.357Z,7.3
2022-11-14T23:45:02.826Z,7.5
